sensor_id;sensor_type;location;lat;lon;timestamp;P1;durP1;ratioP1;P2;durP2;ratioP2
40997;SDS011;26740;45.944;12.480;2023-02-15T00:01:54;65.47;;;29.85;;
40997;SDS011;26740;45.944;12.480;2023-02-15T00:04:20;64.03;;;29.30;;
40997;SDS011;26740;45.944;12.480;2023-02-15T00:06:48;56.70;;;27.33;;
40997;SDS011;26740;45.944;12.480;2023-02-15T00:09:14;64.35;;;27.77;;
40997;SDS011;26740;45.944;12.480;2023-02-15T00:11:40;60.83;;;27.98;;
40997;SDS011;26740;45.944;12.480;2023-02-15T00:14:19;58.63;;;26.85;;
40997;SDS011;26740;45.944;12.480;2023-02-15T00:16:46;61.72;;;27.08;;
40997;SDS011;26740;45.944;12.480;2023-02-15T00:19:14;51.33;;;25.45;;
40997;SDS011;26740;45.944;12.480;2023-02-15T00:21:41;57.72;;;27.98;;
40997;SDS011;26740;45.944;12.480;2023-02-15T00:24:08;64.45;;;26.80;;
40997;SDS011;26740;45.944;12.480;2023-02-15T00:26:35;57.70;;;27.55;;
40997;SDS011;26740;45.944;12.480;2023-02-15T00:29:03;64.30;;;28.50;;
40997;SDS011;26740;45.944;12.480;2023-02-15T00:31:29;60.95;;;27.58;;
40997;SDS011;26740;45.944;12.480;2023-02-15T00:34:07;56.42;;;28.52;;
40997;SDS011;26740;45.944;12.480;2023-02-15T00:36:37;62.47;;;28.45;;
40997;SDS011;26740;45.944;12.480;2023-02-15T00:39:04;57.70;;;28.88;;
40997;SDS011;26740;45.944;12.480;2023-02-15T00:41:30;54.75;;;25.95;;
40997;SDS011;26740;45.944;12.480;2023-02-15T00:43:56;55.17;;;25.75;;
40997;SDS011;26740;45.944;12.480;2023-02-15T00:46:22;52.22;;;24.58;;
40997;SDS011;26740;45.944;12.480;2023-02-15T00:48:47;53.60;;;26.48;;
40997;SDS011;26740;45.944;12.480;2023-02-15T00:51:13;52.17;;;25.05;;
40997;SDS011;26740;45.944;12.480;2023-02-15T00:53:39;45.58;;;23.23;;
40997;SDS011;26740;45.944;12.480;2023-02-15T00:56:05;52.17;;;24.08;;
40997;SDS011;26740;45.944;12.480;2023-02-15T00:58:30;51.85;;;23.38;;
40997;SDS011;26740;45.944;12.480;2023-02-15T01:01:01;48.35;;;24.55;;
40997;SDS011;26740;45.944;12.480;2023-02-15T01:03:29;53.67;;;23.20;;
40997;SDS011;26740;45.944;12.480;2023-02-15T01:05:55;49.05;;;24.00;;
40997;SDS011;26740;45.944;12.480;2023-02-15T01:08:20;53.97;;;23.50;;
40997;SDS011;26740;45.944;12.480;2023-02-15T01:10:46;49.95;;;24.35;;
40997;SDS011;26740;45.944;12.480;2023-02-15T01:13:12;55.92;;;26.00;;
40997;SDS011;26740;45.944;12.480;2023-02-15T01:15:40;53.72;;;25.10;;
40997;SDS011;26740;45.944;12.480;2023-02-15T01:18:05;62.97;;;27.52;;
40997;SDS011;26740;45.944;12.480;2023-02-15T01:20:33;59.25;;;24.52;;
40997;SDS011;26740;45.944;12.480;2023-02-15T01:23:00;49.72;;;23.05;;
40997;SDS011;26740;45.944;12.480;2023-02-15T01:25:25;57.00;;;23.10;;
40997;SDS011;26740;45.944;12.480;2023-02-15T01:27:51;54.58;;;24.80;;
40997;SDS011;26740;45.944;12.480;2023-02-15T01:30:17;51.85;;;23.80;;
40997;SDS011;26740;45.944;12.480;2023-02-15T01:32:43;54.95;;;24.25;;
40997;SDS011;26740;45.944;12.480;2023-02-15T01:35:09;47.38;;;22.55;;
40997;SDS011;26740;45.944;12.480;2023-02-15T01:37:35;54.47;;;23.85;;
40997;SDS011;26740;45.944;12.480;2023-02-15T01:40:02;56.65;;;25.10;;
40997;SDS011;26740;45.944;12.480;2023-02-15T01:42:29;48.63;;;22.70;;
40997;SDS011;26740;45.944;12.480;2023-02-15T01:44:56;46.17;;;20.67;;
40997;SDS011;26740;45.944;12.480;2023-02-15T01:50:30;47.67;;;21.10;;
40997;SDS011;26740;45.944;12.480;2023-02-15T01:55:48;42.35;;;21.02;;
40997;SDS011;26740;45.944;12.480;2023-02-15T01:58:19;42.47;;;19.88;;
40997;SDS011;26740;45.944;12.480;2023-02-15T02:00:46;43.63;;;20.48;;
40997;SDS011;26740;45.944;12.480;2023-02-15T02:03:11;45.83;;;19.73;;
40997;SDS011;26740;45.944;12.480;2023-02-15T02:05:38;42.90;;;19.38;;
40997;SDS011;26740;45.944;12.480;2023-02-15T02:08:05;39.85;;;19.73;;
40997;SDS011;26740;45.944;12.480;2023-02-15T02:10:35;40.63;;;18.92;;
40997;SDS011;26740;45.944;12.480;2023-02-15T02:13:03;45.65;;;19.05;;
40997;SDS011;26740;45.944;12.480;2023-02-15T02:23:38;46.90;;;20.33;;
40997;SDS011;26740;45.944;12.480;2023-02-15T02:29:33;46.13;;;16.20;;
40997;SDS011;26740;45.944;12.480;2023-02-15T02:32:28;39.53;;;17.85;;
40997;SDS011;26740;45.944;12.480;2023-02-15T02:43:26;32.38;;;16.33;;
40997;SDS011;26740;45.944;12.480;2023-02-15T02:46:00;47.03;;;16.30;;
40997;SDS011;26740;45.944;12.480;2023-02-15T02:48:32;39.80;;;16.10;;
40997;SDS011;26740;45.944;12.480;2023-02-15T02:50:58;40.45;;;17.02;;
40997;SDS011;26740;45.944;12.480;2023-02-15T02:53:24;36.65;;;16.10;;
40997;SDS011;26740;45.944;12.480;2023-02-15T02:55:54;36.20;;;15.15;;
40997;SDS011;26740;45.944;12.480;2023-02-15T02:58:24;42.00;;;16.95;;
40997;SDS011;26740;45.944;12.480;2023-02-15T03:05:53;37.15;;;14.80;;
40997;SDS011;26740;45.944;12.480;2023-02-15T03:08:22;29.90;;;14.95;;
40997;SDS011;26740;45.944;12.480;2023-02-15T03:10:53;31.27;;;13.93;;
40997;SDS011;26740;45.944;12.480;2023-02-15T03:13:22;34.25;;;14.00;;
40997;SDS011;26740;45.944;12.480;2023-02-15T03:15:48;34.58;;;15.05;;
40997;SDS011;26740;45.944;12.480;2023-02-15T03:18:39;33.72;;;13.48;;
40997;SDS011;26740;45.944;12.480;2023-02-15T03:21:08;35.53;;;15.75;;
40997;SDS011;26740;45.944;12.480;2023-02-15T03:23:48;36.45;;;14.68;;
40997;SDS011;26740;45.944;12.480;2023-02-15T03:26:18;39.67;;;13.93;;
40997;SDS011;26740;45.944;12.480;2023-02-15T03:28:46;29.92;;;14.25;;
40997;SDS011;26740;45.944;12.480;2023-02-15T03:31:16;34.08;;;14.48;;
40997;SDS011;26740;45.944;12.480;2023-02-15T03:33:48;39.08;;;15.52;;
40997;SDS011;26740;45.944;12.480;2023-02-15T03:39:21;36.92;;;15.85;;
40997;SDS011;26740;45.944;12.480;2023-02-15T03:42:01;32.40;;;14.32;;
40997;SDS011;26740;45.944;12.480;2023-02-15T03:44:37;28.67;;;14.00;;
40997;SDS011;26740;45.944;12.480;2023-02-15T03:47:13;35.55;;;14.02;;
40997;SDS011;26740;45.944;12.480;2023-02-15T03:49:54;28.67;;;13.70;;
40997;SDS011;26740;45.944;12.480;2023-02-15T03:52:25;29.63;;;13.68;;
40997;SDS011;26740;45.944;12.480;2023-02-15T03:54:54;25.58;;;12.35;;
40997;SDS011;26740;45.944;12.480;2023-02-15T03:57:26;27.30;;;11.05;;
40997;SDS011;26740;45.944;12.480;2023-02-15T04:00:13;24.30;;;11.15;;
40997;SDS011;26740;45.944;12.480;2023-02-15T04:05:45;22.60;;;11.05;;
40997;SDS011;26740;45.944;12.480;2023-02-15T04:08:11;24.42;;;11.05;;
40997;SDS011;26740;45.944;12.480;2023-02-15T04:10:37;22.25;;;10.73;;
40997;SDS011;26740;45.944;12.480;2023-02-15T04:13:21;28.45;;;12.00;;
40997;SDS011;26740;45.944;12.480;2023-02-15T04:15:48;29.15;;;13.00;;
40997;SDS011;26740;45.944;12.480;2023-02-15T04:21:18;30.10;;;12.32;;
40997;SDS011;26740;45.944;12.480;2023-02-15T04:24:04;33.08;;;12.68;;
40997;SDS011;26740;45.944;12.480;2023-02-15T04:26:48;22.40;;;10.77;;
40997;SDS011;26740;45.944;12.480;2023-02-15T04:29:14;26.67;;;10.93;;
40997;SDS011;26740;45.944;12.480;2023-02-15T04:31:40;28.67;;;11.57;;
40997;SDS011;26740;45.944;12.480;2023-02-15T04:34:08;32.42;;;12.40;;
40997;SDS011;26740;45.944;12.480;2023-02-15T04:36:34;31.23;;;14.32;;
40997;SDS011;26740;45.944;12.480;2023-02-15T04:38:59;31.90;;;15.00;;
40997;SDS011;26740;45.944;12.480;2023-02-15T04:41:25;34.22;;;14.50;;
40997;SDS011;26740;45.944;12.480;2023-02-15T04:43:50;32.03;;;13.00;;
40997;SDS011;26740;45.944;12.480;2023-02-15T04:46:16;32.83;;;12.00;;
40997;SDS011;26740;45.944;12.480;2023-02-15T04:48:41;32.75;;;12.82;;
40997;SDS011;26740;45.944;12.480;2023-02-15T04:51:08;32.85;;;13.57;;
40997;SDS011;26740;45.944;12.480;2023-02-15T04:53:34;25.83;;;12.98;;
40997;SDS011;26740;45.944;12.480;2023-02-15T04:56:00;30.42;;;13.63;;
40997;SDS011;26740;45.944;12.480;2023-02-15T04:58:26;33.03;;;12.88;;
40997;SDS011;26740;45.944;12.480;2023-02-15T05:00:54;32.53;;;12.95;;
40997;SDS011;26740;45.944;12.480;2023-02-15T05:03:21;33.00;;;13.90;;
40997;SDS011;26740;45.944;12.480;2023-02-15T05:05:47;29.58;;;13.05;;
40997;SDS011;26740;45.944;12.480;2023-02-15T05:08:12;28.65;;;13.35;;
40997;SDS011;26740;45.944;12.480;2023-02-15T05:10:38;41.42;;;14.55;;
40997;SDS011;26740;45.944;12.480;2023-02-15T05:13:04;26.67;;;13.00;;
40997;SDS011;26740;45.944;12.480;2023-02-15T05:15:29;28.33;;;13.02;;
40997;SDS011;26740;45.944;12.480;2023-02-15T05:17:55;31.40;;;13.25;;
40997;SDS011;26740;45.944;12.480;2023-02-15T05:20:20;29.02;;;13.77;;
40997;SDS011;26740;45.944;12.480;2023-02-15T05:22:46;34.42;;;14.05;;
40997;SDS011;26740;45.944;12.480;2023-02-15T05:25:12;26.45;;;12.70;;
40997;SDS011;26740;45.944;12.480;2023-02-15T05:27:55;28.25;;;13.50;;
40997;SDS011;26740;45.944;12.480;2023-02-15T05:30:39;29.90;;;11.18;;
40997;SDS011;26740;45.944;12.480;2023-02-15T05:33:06;28.27;;;12.65;;
40997;SDS011;26740;45.944;12.480;2023-02-15T05:35:32;27.55;;;12.93;;
40997;SDS011;26740;45.944;12.480;2023-02-15T05:37:58;30.95;;;13.40;;
40997;SDS011;26740;45.944;12.480;2023-02-15T05:40:23;28.75;;;11.77;;
40997;SDS011;26740;45.944;12.480;2023-02-15T05:42:49;31.13;;;13.65;;
40997;SDS011;26740;45.944;12.480;2023-02-15T05:45:15;31.25;;;12.25;;
40997;SDS011;26740;45.944;12.480;2023-02-15T05:47:40;29.85;;;12.77;;
40997;SDS011;26740;45.944;12.480;2023-02-15T05:50:07;31.30;;;13.93;;
40997;SDS011;26740;45.944;12.480;2023-02-15T05:52:33;33.45;;;14.73;;
40997;SDS011;26740;45.944;12.480;2023-02-15T05:54:59;48.05;;;17.40;;
40997;SDS011;26740;45.944;12.480;2023-02-15T05:57:25;35.60;;;15.68;;
40997;SDS011;26740;45.944;12.480;2023-02-15T05:59:51;36.88;;;16.52;;
40997;SDS011;26740;45.944;12.480;2023-02-15T06:02:17;39.20;;;17.40;;
40997;SDS011;26740;45.944;12.480;2023-02-15T06:04:43;45.60;;;18.58;;
40997;SDS011;26740;45.944;12.480;2023-02-15T06:07:09;36.28;;;14.10;;
40997;SDS011;26740;45.944;12.480;2023-02-15T06:09:34;41.72;;;16.08;;
40997;SDS011;26740;45.944;12.480;2023-02-15T06:12:00;35.85;;;15.15;;
40997;SDS011;26740;45.944;12.480;2023-02-15T06:14:25;31.70;;;14.02;;
40997;SDS011;26740;45.944;12.480;2023-02-15T06:16:51;35.20;;;15.10;;
40997;SDS011;26740;45.944;12.480;2023-02-15T06:19:16;36.75;;;16.17;;
40997;SDS011;26740;45.944;12.480;2023-02-15T06:21:42;38.83;;;17.73;;
40997;SDS011;26740;45.944;12.480;2023-02-15T06:24:08;36.67;;;16.17;;
40997;SDS011;26740;45.944;12.480;2023-02-15T06:26:34;40.80;;;17.48;;
40997;SDS011;26740;45.944;12.480;2023-02-15T06:29:00;37.88;;;16.25;;
40997;SDS011;26740;45.944;12.480;2023-02-15T06:31:25;43.60;;;18.20;;
40997;SDS011;26740;45.944;12.480;2023-02-15T06:33:51;42.20;;;17.65;;
40997;SDS011;26740;45.944;12.480;2023-02-15T06:36:16;48.10;;;17.17;;
40997;SDS011;26740;45.944;12.480;2023-02-15T06:38:42;37.13;;;17.67;;
40997;SDS011;26740;45.944;12.480;2023-02-15T06:41:07;41.72;;;17.55;;
40997;SDS011;26740;45.944;12.480;2023-02-15T06:43:33;34.58;;;16.33;;
40997;SDS011;26740;45.944;12.480;2023-02-15T06:45:59;37.17;;;17.13;;
40997;SDS011;26740;45.944;12.480;2023-02-15T06:48:25;35.03;;;16.27;;
40997;SDS011;26740;45.944;12.480;2023-02-15T06:50:51;46.70;;;16.98;;
40997;SDS011;26740;45.944;12.480;2023-02-15T06:53:16;33.05;;;15.98;;
40997;SDS011;26740;45.944;12.480;2023-02-15T06:55:42;45.80;;;17.58;;
40997;SDS011;26740;45.944;12.480;2023-02-15T06:58:08;35.53;;;17.33;;
40997;SDS011;26740;45.944;12.480;2023-02-15T07:00:33;45.25;;;16.42;;
40997;SDS011;26740;45.944;12.480;2023-02-15T07:02:59;37.95;;;16.48;;
40997;SDS011;26740;45.944;12.480;2023-02-15T07:05:27;35.80;;;15.68;;
40997;SDS011;26740;45.944;12.480;2023-02-15T07:07:59;32.17;;;16.30;;
40997;SDS011;26740;45.944;12.480;2023-02-15T07:10:26;45.13;;;23.00;;
40997;SDS011;26740;45.944;12.480;2023-02-15T07:12:52;44.83;;;20.63;;
40997;SDS011;26740;45.944;12.480;2023-02-15T07:15:19;42.60;;;21.33;;
40997;SDS011;26740;45.944;12.480;2023-02-15T07:17:46;39.92;;;18.90;;
40997;SDS011;26740;45.944;12.480;2023-02-15T07:20:16;32.53;;;17.50;;
40997;SDS011;26740;45.944;12.480;2023-02-15T07:22:44;43.53;;;19.33;;
40997;SDS011;26740;45.944;12.480;2023-02-15T07:25:10;35.35;;;17.00;;
40997;SDS011;26740;45.944;12.480;2023-02-15T07:27:37;36.83;;;20.35;;
40997;SDS011;26740;45.944;12.480;2023-02-15T07:30:04;38.95;;;20.33;;
40997;SDS011;26740;45.944;12.480;2023-02-15T07:32:31;38.50;;;19.88;;
40997;SDS011;26740;45.944;12.480;2023-02-15T07:34:58;37.13;;;19.60;;
40997;SDS011;26740;45.944;12.480;2023-02-15T07:37:24;43.45;;;21.58;;
40997;SDS011;26740;45.944;12.480;2023-02-15T07:39:50;36.90;;;19.63;;
40997;SDS011;26740;45.944;12.480;2023-02-15T07:42:16;66.95;;;33.50;;
40997;SDS011;26740;45.944;12.480;2023-02-15T07:44:43;61.50;;;31.60;;
40997;SDS011;26740;45.944;12.480;2023-02-15T07:47:08;81.40;;;41.50;;
40997;SDS011;26740;45.944;12.480;2023-02-15T07:49:34;84.05;;;39.05;;
40997;SDS011;26740;45.944;12.480;2023-02-15T07:52:00;80.28;;;40.00;;
40997;SDS011;26740;45.944;12.480;2023-02-15T07:54:27;64.45;;;33.38;;
40997;SDS011;26740;45.944;12.480;2023-02-15T07:56:52;51.83;;;26.25;;
40997;SDS011;26740;45.944;12.480;2023-02-15T07:59:18;62.50;;;26.17;;
40997;SDS011;26740;45.944;12.480;2023-02-15T08:01:44;48.08;;;24.98;;
40997;SDS011;26740;45.944;12.480;2023-02-15T08:04:09;41.25;;;20.13;;
40997;SDS011;26740;45.944;12.480;2023-02-15T08:06:36;38.33;;;19.05;;
40997;SDS011;26740;45.944;12.480;2023-02-15T08:09:05;39.30;;;18.23;;
40997;SDS011;26740;45.944;12.480;2023-02-15T08:11:33;31.63;;;15.73;;
40997;SDS011;26740;45.944;12.480;2023-02-15T08:14:06;29.48;;;16.88;;
40997;SDS011;26740;45.944;12.480;2023-02-15T08:21:50;35.47;;;19.00;;
40997;SDS011;26740;45.944;12.480;2023-02-15T08:24:22;30.05;;;18.15;;
40997;SDS011;26740;45.944;12.480;2023-02-15T08:26:50;35.55;;;20.70;;
40997;SDS011;26740;45.944;12.480;2023-02-15T08:29:20;44.72;;;22.10;;
40997;SDS011;26740;45.944;12.480;2023-02-15T08:31:55;36.08;;;22.08;;
40997;SDS011;26740;45.944;12.480;2023-02-15T08:34:24;39.92;;;22.92;;
40997;SDS011;26740;45.944;12.480;2023-02-15T08:36:49;39.35;;;20.27;;
40997;SDS011;26740;45.944;12.480;2023-02-15T08:39:16;34.20;;;20.83;;
40997;SDS011;26740;45.944;12.480;2023-02-15T08:41:42;42.08;;;21.42;;
40997;SDS011;26740;45.944;12.480;2023-02-15T08:44:10;35.10;;;19.55;;
40997;SDS011;26740;45.944;12.480;2023-02-15T08:46:37;39.03;;;21.23;;
40997;SDS011;26740;45.944;12.480;2023-02-15T08:49:04;39.33;;;23.70;;
40997;SDS011;26740;45.944;12.480;2023-02-15T08:51:32;39.33;;;24.30;;
40997;SDS011;26740;45.944;12.480;2023-02-15T08:54:00;34.55;;;21.83;;
40997;SDS011;26740;45.944;12.480;2023-02-15T08:56:30;36.42;;;21.58;;
40997;SDS011;26740;45.944;12.480;2023-02-15T08:58:59;40.85;;;22.05;;
40997;SDS011;26740;45.944;12.480;2023-02-15T09:01:26;40.47;;;19.38;;
40997;SDS011;26740;45.944;12.480;2023-02-15T09:04:01;35.30;;;20.60;;
40997;SDS011;26740;45.944;12.480;2023-02-15T09:06:35;36.85;;;20.30;;
40997;SDS011;26740;45.944;12.480;2023-02-15T09:09:05;32.90;;;18.75;;
40997;SDS011;26740;45.944;12.480;2023-02-15T09:11:33;34.42;;;20.33;;
40997;SDS011;26740;45.944;12.480;2023-02-15T09:14:05;31.90;;;18.58;;
40997;SDS011;26740;45.944;12.480;2023-02-15T09:16:35;32.75;;;18.75;;
40997;SDS011;26740;45.944;12.480;2023-02-15T09:19:02;26.58;;;13.95;;
40997;SDS011;26740;45.944;12.480;2023-02-15T09:21:31;27.10;;;14.65;;
40997;SDS011;26740;45.944;12.480;2023-02-15T09:24:00;24.73;;;14.38;;
40997;SDS011;26740;45.944;12.480;2023-02-15T09:26:28;23.67;;;13.95;;
40997;SDS011;26740;45.944;12.480;2023-02-15T09:28:57;24.70;;;13.55;;
40997;SDS011;26740;45.944;12.480;2023-02-15T09:31:30;22.77;;;14.48;;
40997;SDS011;26740;45.944;12.480;2023-02-15T09:33:57;21.33;;;12.20;;
40997;SDS011;26740;45.944;12.480;2023-02-15T09:36:26;23.38;;;13.50;;
40997;SDS011;26740;45.944;12.480;2023-02-15T09:39:01;21.58;;;13.27;;
40997;SDS011;26740;45.944;12.480;2023-02-15T09:44:22;22.75;;;13.43;;
40997;SDS011;26740;45.944;12.480;2023-02-15T09:55:29;23.35;;;11.98;;
40997;SDS011;26740;45.944;12.480;2023-02-15T09:58:19;21.92;;;11.23;;
40997;SDS011;26740;45.944;12.480;2023-02-15T10:10:34;15.82;;;10.48;;
40997;SDS011;26740;45.944;12.480;2023-02-15T10:13:30;16.02;;;9.88;;
40997;SDS011;26740;45.944;12.480;2023-02-15T10:19:28;16.08;;;9.82;;
40997;SDS011;26740;45.944;12.480;2023-02-15T10:27:40;16.60;;;9.70;;
40997;SDS011;26740;45.944;12.480;2023-02-15T10:30:15;19.58;;;11.18;;
40997;SDS011;26740;45.944;12.480;2023-02-15T10:35:28;162.25;;;24.73;;
40997;SDS011;26740;45.944;12.480;2023-02-15T10:41:16;18.40;;;10.95;;
40997;SDS011;26740;45.944;12.480;2023-02-15T10:55:02;17.67;;;11.00;;
40997;SDS011;26740;45.944;12.480;2023-02-15T11:01:02;18.63;;;11.70;;
40997;SDS011;26740;45.944;12.480;2023-02-15T11:06:52;22.05;;;11.40;;
40997;SDS011;26740;45.944;12.480;2023-02-15T11:09:22;21.42;;;11.75;;
40997;SDS011;26740;45.944;12.480;2023-02-15T11:11:53;24.05;;;11.95;;
40997;SDS011;26740;45.944;12.480;2023-02-15T11:17:12;19.58;;;11.20;;
40997;SDS011;26740;45.944;12.480;2023-02-15T11:22:39;18.52;;;11.20;;
40997;SDS011;26740;45.944;12.480;2023-02-15T11:25:14;21.05;;;11.30;;
40997;SDS011;26740;45.944;12.480;2023-02-15T11:27:47;27.45;;;14.55;;
40997;SDS011;26740;45.944;12.480;2023-02-15T11:31:02;25.58;;;14.13;;
40997;SDS011;26740;45.944;12.480;2023-02-15T11:33:14;31.45;;;15.88;;
40997;SDS011;26740;45.944;12.480;2023-02-15T11:38:45;20.50;;;12.15;;
40997;SDS011;26740;45.944;12.480;2023-02-15T11:41:18;18.85;;;10.93;;
40997;SDS011;26740;45.944;12.480;2023-02-15T11:43:59;23.98;;;12.45;;
40997;SDS011;26740;45.944;12.480;2023-02-15T11:46:31;22.77;;;13.55;;
40997;SDS011;26740;45.944;12.480;2023-02-15T11:48:57;21.98;;;12.20;;
40997;SDS011;26740;45.944;12.480;2023-02-15T11:51:23;25.40;;;12.55;;
40997;SDS011;26740;45.944;12.480;2023-02-15T11:53:51;21.73;;;11.50;;
40997;SDS011;26740;45.944;12.480;2023-02-15T11:56:26;21.20;;;10.90;;
40997;SDS011;26740;45.944;12.480;2023-02-15T12:06:45;22.42;;;11.77;;
40997;SDS011;26740;45.944;12.480;2023-02-15T12:09:36;21.65;;;11.90;;
40997;SDS011;26740;45.944;12.480;2023-02-15T12:12:28;21.45;;;10.30;;
40997;SDS011;26740;45.944;12.480;2023-02-15T12:14:57;19.50;;;11.43;;
40997;SDS011;26740;45.944;12.480;2023-02-15T12:20:01;21.92;;;11.05;;
40997;SDS011;26740;45.944;12.480;2023-02-15T12:22:33;20.13;;;11.18;;
40997;SDS011;26740;45.944;12.480;2023-02-15T12:25:20;21.30;;;11.45;;
40997;SDS011;26740;45.944;12.480;2023-02-15T12:27:51;20.83;;;10.77;;
40997;SDS011;26740;45.944;12.480;2023-02-15T12:30:29;20.13;;;11.07;;
40997;SDS011;26740;45.944;12.480;2023-02-15T12:33:02;24.50;;;12.30;;
40997;SDS011;26740;45.944;12.480;2023-02-15T12:35:41;19.77;;;11.35;;
40997;SDS011;26740;45.944;12.480;2023-02-15T12:40:34;22.77;;;11.70;;
40997;SDS011;26740;45.944;12.480;2023-02-15T12:43:00;20.60;;;11.13;;
40997;SDS011;26740;45.944;12.480;2023-02-15T12:45:33;21.38;;;10.77;;
40997;SDS011;26740;45.944;12.480;2023-02-15T12:50:39;24.20;;;10.95;;
40997;SDS011;26740;45.944;12.480;2023-02-15T12:53:20;20.08;;;10.18;;
40997;SDS011;26740;45.944;12.480;2023-02-15T12:55:52;21.80;;;11.45;;
40997;SDS011;26740;45.944;12.480;2023-02-15T12:58:23;21.63;;;11.00;;
40997;SDS011;26740;45.944;12.480;2023-02-15T13:03:37;22.55;;;11.65;;
40997;SDS011;26740;45.944;12.480;2023-02-15T13:06:04;20.08;;;11.80;;
40997;SDS011;26740;45.944;12.480;2023-02-15T13:08:55;23.67;;;11.15;;
40997;SDS011;26740;45.944;12.480;2023-02-15T13:11:22;19.90;;;11.48;;
40997;SDS011;26740;45.944;12.480;2023-02-15T13:14:03;17.02;;;9.82;;
40997;SDS011;26740;45.944;12.480;2023-02-15T13:16:48;18.30;;;10.18;;
40997;SDS011;26740;45.944;12.480;2023-02-15T13:19:19;16.15;;;9.18;;
40997;SDS011;26740;45.944;12.480;2023-02-15T13:21:52;18.52;;;9.18;;
40997;SDS011;26740;45.944;12.480;2023-02-15T13:24:25;16.98;;;8.85;;
40997;SDS011;26740;45.944;12.480;2023-02-15T13:26:59;18.55;;;9.07;;
40997;SDS011;26740;45.944;12.480;2023-02-15T13:29:28;18.25;;;8.68;;
40997;SDS011;26740;45.944;12.480;2023-02-15T13:31:58;19.45;;;10.43;;
40997;SDS011;26740;45.944;12.480;2023-02-15T13:34:33;21.65;;;11.07;;
40997;SDS011;26740;45.944;12.480;2023-02-15T13:42:21;19.25;;;10.52;;
40997;SDS011;26740;45.944;12.480;2023-02-15T13:50:36;18.38;;;10.45;;
40997;SDS011;26740;45.944;12.480;2023-02-15T14:01:09;19.23;;;11.52;;
40997;SDS011;26740;45.944;12.480;2023-02-15T14:09:37;24.90;;;13.18;;
40997;SDS011;26740;45.944;12.480;2023-02-15T14:12:20;25.65;;;12.15;;
40997;SDS011;26740;45.944;12.480;2023-02-15T14:31:58;19.30;;;9.68;;
40997;SDS011;26740;45.944;12.480;2023-02-15T14:37:25;20.38;;;10.77;;
40997;SDS011;26740;45.944;12.480;2023-02-15T14:43:01;16.48;;;9.93;;
40997;SDS011;26740;45.944;12.480;2023-02-15T14:48:33;23.80;;;10.00;;
40997;SDS011;26740;45.944;12.480;2023-02-15T14:51:09;19.55;;;10.32;;
40997;SDS011;26740;45.944;12.480;2023-02-15T14:53:36;22.45;;;12.15;;
40997;SDS011;26740;45.944;12.480;2023-02-15T14:58:38;21.42;;;11.63;;
40997;SDS011;26740;45.944;12.480;2023-02-15T15:01:25;21.05;;;11.68;;
40997;SDS011;26740;45.944;12.480;2023-02-15T15:03:52;20.70;;;10.55;;
40997;SDS011;26740;45.944;12.480;2023-02-15T15:06:31;23.52;;;11.38;;
40997;SDS011;26740;45.944;12.480;2023-02-15T15:08:59;23.38;;;11.70;;
40997;SDS011;26740;45.944;12.480;2023-02-15T15:11:47;22.90;;;11.05;;
40997;SDS011;26740;45.944;12.480;2023-02-15T15:20:03;23.10;;;11.85;;
40997;SDS011;26740;45.944;12.480;2023-02-15T15:22:23;21.95;;;11.68;;
40997;SDS011;26740;45.944;12.480;2023-02-15T15:24:54;32.55;;;11.90;;
40997;SDS011;26740;45.944;12.480;2023-02-15T15:44:28;21.83;;;10.30;;
40997;SDS011;26740;45.944;12.480;2023-02-15T15:49:48;25.08;;;10.90;;
40997;SDS011;26740;45.944;12.480;2023-02-15T15:52:16;26.40;;;12.73;;
40997;SDS011;26740;45.944;12.480;2023-02-15T15:54:44;24.50;;;11.77;;
40997;SDS011;26740;45.944;12.480;2023-02-15T15:57:29;24.33;;;11.75;;
40997;SDS011;26740;45.944;12.480;2023-02-15T15:59:56;23.50;;;12.55;;
40997;SDS011;26740;45.944;12.480;2023-02-15T16:02:25;22.63;;;11.00;;
40997;SDS011;26740;45.944;12.480;2023-02-15T16:04:51;22.55;;;11.73;;
40997;SDS011;26740;45.944;12.480;2023-02-15T16:09:56;27.00;;;10.93;;
40997;SDS011;26740;45.944;12.480;2023-02-15T16:12:22;27.35;;;12.07;;
40997;SDS011;26740;45.944;12.480;2023-02-15T16:14:48;22.98;;;11.18;;
40997;SDS011;26740;45.944;12.480;2023-02-15T16:17:26;23.15;;;10.70;;
40997;SDS011;26740;45.944;12.480;2023-02-15T16:20:04;23.17;;;10.93;;
40997;SDS011;26740;45.944;12.480;2023-02-15T16:22:33;21.35;;;11.15;;
40997;SDS011;26740;45.944;12.480;2023-02-15T16:27:44;21.63;;;11.40;;
40997;SDS011;26740;45.944;12.480;2023-02-15T16:30:18;28.75;;;13.55;;
40997;SDS011;26740;45.944;12.480;2023-02-15T16:33:33;27.77;;;12.65;;
40997;SDS011;26740;45.944;12.480;2023-02-15T16:35:41;23.08;;;11.90;;
40997;SDS011;26740;45.944;12.480;2023-02-15T16:38:31;28.25;;;13.07;;
40997;SDS011;26740;45.944;12.480;2023-02-15T16:41:29;28.70;;;12.95;;
40997;SDS011;26740;45.944;12.480;2023-02-15T16:43:56;27.73;;;12.70;;
40997;SDS011;26740;45.944;12.480;2023-02-15T16:46:27;26.98;;;12.27;;
40997;SDS011;26740;45.944;12.480;2023-02-15T16:48:54;23.33;;;12.05;;
40997;SDS011;26740;45.944;12.480;2023-02-15T16:53:51;23.15;;;11.05;;
40997;SDS011;26740;45.944;12.480;2023-02-15T16:56:21;34.45;;;15.75;;
40997;SDS011;26740;45.944;12.480;2023-02-15T16:58:49;38.53;;;14.88;;
40997;SDS011;26740;45.944;12.480;2023-02-15T17:01:16;32.35;;;13.00;;
40997;SDS011;26740;45.944;12.480;2023-02-15T17:03:48;45.85;;;17.48;;
40997;SDS011;26740;45.944;12.480;2023-02-15T17:08:52;45.67;;;20.13;;
40997;SDS011;26740;45.944;12.480;2023-02-15T17:11:35;49.83;;;18.17;;
40997;SDS011;26740;45.944;12.480;2023-02-15T17:16:47;54.97;;;21.52;;
40997;SDS011;26740;45.944;12.480;2023-02-15T17:19:16;45.40;;;21.17;;
40997;SDS011;26740;45.944;12.480;2023-02-15T17:21:48;31.67;;;13.57;;
40997;SDS011;26740;45.944;12.480;2023-02-15T17:24:39;42.00;;;18.13;;
40997;SDS011;26740;45.944;12.480;2023-02-15T17:27:29;49.25;;;20.55;;
40997;SDS011;26740;45.944;12.480;2023-02-15T17:29:56;50.78;;;19.05;;
40997;SDS011;26740;45.944;12.480;2023-02-15T17:32:27;52.75;;;20.65;;
40997;SDS011;26740;45.944;12.480;2023-02-15T17:34:59;43.05;;;21.23;;
40997;SDS011;26740;45.944;12.480;2023-02-15T17:40:07;50.42;;;21.27;;
40997;SDS011;26740;45.944;12.480;2023-02-15T17:42:48;49.67;;;21.77;;
40997;SDS011;26740;45.944;12.480;2023-02-15T17:45:14;43.95;;;21.50;;
40997;SDS011;26740;45.944;12.480;2023-02-15T17:47:40;45.08;;;21.75;;
40997;SDS011;26740;45.944;12.480;2023-02-15T17:50:06;51.05;;;23.08;;
40997;SDS011;26740;45.944;12.480;2023-02-15T17:52:34;60.40;;;28.35;;
40997;SDS011;26740;45.944;12.480;2023-02-15T17:55:01;71.20;;;29.10;;
40997;SDS011;26740;45.944;12.480;2023-02-15T17:57:55;78.25;;;31.15;;
40997;SDS011;26740;45.944;12.480;2023-02-15T18:00:21;60.00;;;24.80;;
40997;SDS011;26740;45.944;12.480;2023-02-15T18:03:07;67.97;;;26.70;;
40997;SDS011;26740;45.944;12.480;2023-02-15T18:05:53;99.30;;;34.53;;
40997;SDS011;26740;45.944;12.480;2023-02-15T18:08:37;61.72;;;26.58;;